SWA3439 KMKE-KDCA
Flight info
| Callsign | SWA3439 |
|---|---|
| Flight time | 1h 28m |
| Altitude | 35000 |
| Route | UECKR6 SAMPL ADIME OTENS ANEWA JERRI BUCKO FRDMM6 |
| Aircraft | B738/M-SDE2E3FGHIRWXY/LB1 |
Departure
| Time | 2026-05-03 21:01 |
|---|---|
| Airport | General Mitchell International Airport (KMKE) |
Arrival
| Time | 2026-05-03 22:30 |
|---|---|
| Airport | Ronald Reagan Washington National Airport (KDCA) |
| Time | Latitude | Longitude | Altitude | Speed | Heading |
|---|---|---|---|---|---|
| 2026-05-03 20:27 | 42.95082 | -87.89991 | 680 ft | 0 kts | 231° |
| 2026-05-03 20:51 | 42.95095 | -87.89969 | 679 ft | 4 kts | 223° |
| 2026-05-03 20:52 | 42.95116 | -87.89948 | 682 ft | 4 kts | 200° |
| 2026-05-03 20:52 | 42.95138 | -87.89945 | 679 ft | 4 kts | 139° |
| 2026-05-03 20:52 | 42.95141 | -87.89949 | 684 ft | 2 kts | 133° |
| 2026-05-03 20:56 | 42.95141 | -87.89948 | 687 ft | 1 kts | 133° |
| 2026-05-03 20:56 | 42.95127 | -87.89929 | 684 ft | 5 kts | 133° |
| 2026-05-03 20:56 | 42.95092 | -87.89877 | 687 ft | 10 kts | 132° |
| 2026-05-03 20:56 | 42.95028 | -87.89808 | 687 ft | 11 kts | 154° |
| 2026-05-03 20:57 | 42.94965 | -87.89758 | 681 ft | 10 kts | 139° |
| 2026-05-03 20:57 | 42.94908 | -87.89704 | 678 ft | 10 kts | 167° |
| 2026-05-03 20:57 | 42.94840 | -87.89710 | 685 ft | 10 kts | 188° |
| 2026-05-03 20:57 | 42.94777 | -87.89695 | 683 ft | 9 kts | 145° |
| 2026-05-03 20:58 | 42.94731 | -87.89635 | 681 ft | 9 kts | 161° |
| 2026-05-03 20:58 | 42.94669 | -87.89639 | 683 ft | 9 kts | 188° |
| 2026-05-03 20:58 | 42.94626 | -87.89593 | 687 ft | 9 kts | 102° |
| 2026-05-03 20:58 | 42.94615 | -87.89499 | 681 ft | 11 kts | 96° |
| 2026-05-03 20:59 | 42.94610 | -87.89384 | 687 ft | 13 kts | 84° |
| 2026-05-03 20:59 | 42.94637 | -87.89257 | 685 ft | 15 kts | 72° |
| 2026-05-03 20:59 | 42.94668 | -87.89127 | 685 ft | 14 kts | 72° |
| 2026-05-03 20:59 | 42.94697 | -87.89003 | 687 ft | 13 kts | 70° |
| 2026-05-03 21:00 | 42.94708 | -87.88899 | 686 ft | 10 kts | 116° |
| 2026-05-03 21:00 | 42.94691 | -87.88875 | 679 ft | 10 kts | 148° |
| 2026-05-03 21:00 | 42.94602 | -87.88930 | 684 ft | 10 kts | 251° |
| 2026-05-03 21:00 | 42.94576 | -87.89033 | 685 ft | 19 kts | 251° |
| 2026-05-03 21:01 | 42.94456 | -87.89519 | 686 ft | 89 kts | 252° |
| 2026-05-03 21:01 | 42.94191 | -87.90591 | 697 ft | 147 kts | 251° |
| 2026-05-03 21:01 | 42.93873 | -87.92087 | 1045 ft | 171 kts | 255° |
| 2026-05-03 21:01 | 42.93589 | -87.93556 | 2221 ft | 150 kts | 250° |
| 2026-05-03 21:02 | 42.92954 | -87.94695 | 2853 ft | 168 kts | 214° |
| 2026-05-03 21:02 | 42.91701 | -87.94969 | 3099 ft | 206 kts | 172° |
| 2026-05-03 21:02 | 42.90451 | -87.93765 | 3546 ft | 241 kts | 133° |
| 2026-05-03 21:02 | 42.89517 | -87.91861 | 4170 ft | 246 kts | 138° |
| 2026-05-03 21:03 | 42.88247 | -87.90121 | 4518 ft | 269 kts | 144° |
| 2026-05-03 21:03 | 42.86846 | -87.88371 | 5297 ft | 276 kts | 143° |
| 2026-05-03 21:03 | 42.85905 | -87.87177 | 5858 ft | 280 kts | 142° |
| 2026-05-03 21:03 | 42.83984 | -87.84662 | 6898 ft | 291 kts | 141° |
| 2026-05-03 21:04 | 42.83022 | -87.83367 | 7397 ft | 296 kts | 140° |
| 2026-05-03 21:04 | 42.81545 | -87.81350 | 8121 ft | 305 kts | 138° |
| 2026-05-03 21:04 | 42.79559 | -87.78592 | 9185 ft | 313 kts | 137° |
| 2026-05-03 21:04 | 42.78537 | -87.77163 | 9822 ft | 312 kts | 136° |
| 2026-05-03 21:05 | 42.77006 | -87.75016 | 10474 ft | 322 kts | 136° |
| 2026-05-03 21:05 | 42.75411 | -87.72777 | 10689 ft | 346 kts | 135° |
| 2026-05-03 21:05 | 42.73082 | -87.69512 | 11174 ft | 369 kts | 135° |
| 2026-05-03 21:05 | 42.71892 | -87.67844 | 11658 ft | 372 kts | 135° |
| 2026-05-03 21:06 | 42.69959 | -87.65513 | 12441 ft | 372 kts | 151° |
| 2026-05-03 21:06 | 42.67574 | -87.64227 | 13214 ft | 368 kts | 172° |
| 2026-05-03 21:06 | 42.65024 | -87.63903 | 13932 ft | 368 kts | 181° |
| 2026-05-03 21:06 | 42.62442 | -87.63767 | 14572 ft | 373 kts | 181° |
| 2026-05-03 21:07 | 42.59867 | -87.63635 | 15218 ft | 376 kts | 181° |
| 2026-05-03 21:07 | 42.57236 | -87.63469 | 15882 ft | 380 kts | 180° |
| 2026-05-03 21:07 | 42.54587 | -87.63280 | 16557 ft | 383 kts | 180° |
| 2026-05-03 21:07 | 42.51908 | -87.63076 | 17201 ft | 387 kts | 180° |
| 2026-05-03 21:08 | 42.49206 | -87.62856 | 17850 ft | 390 kts | 180° |
| 2026-05-03 21:08 | 42.46478 | -87.62633 | 18438 ft | 394 kts | 180° |
| 2026-05-03 21:08 | 42.43728 | -87.62411 | 18976 ft | 398 kts | 180° |
| 2026-05-03 21:08 | 42.40964 | -87.62469 | 19503 ft | 397 kts | 191° |
| 2026-05-03 21:09 | 42.38237 | -87.63084 | 20065 ft | 398 kts | 195° |
| 2026-05-03 21:09 | 42.35506 | -87.63779 | 20626 ft | 402 kts | 194° |
| 2026-05-03 21:09 | 42.32733 | -87.64381 | 21190 ft | 408 kts | 188° |
| 2026-05-03 21:09 | 42.29911 | -87.63966 | 21684 ft | 422 kts | 165° |
| 2026-05-03 21:10 | 42.27161 | -87.62526 | 22288 ft | 426 kts | 160° |
| 2026-05-03 21:10 | 42.24415 | -87.60959 | 22800 ft | 430 kts | 159° |
| 2026-05-03 21:10 | 42.21642 | -87.59370 | 23293 ft | 435 kts | 160° |
| 2026-05-03 21:10 | 42.18840 | -87.57788 | 23737 ft | 438 kts | 160° |
| 2026-05-03 21:11 | 42.16016 | -87.56217 | 24182 ft | 440 kts | 161° |
| 2026-05-03 21:11 | 42.13166 | -87.54648 | 24623 ft | 443 kts | 161° |
| 2026-05-03 21:11 | 42.10295 | -87.53076 | 25042 ft | 446 kts | 161° |
| 2026-05-03 21:11 | 42.07406 | -87.51495 | 25455 ft | 449 kts | 161° |
| 2026-05-03 21:12 | 42.04503 | -87.49908 | 25868 ft | 452 kts | 161° |
| 2026-05-03 21:12 | 42.01757 | -87.47890 | 26212 ft | 462 kts | 143° |
| 2026-05-03 21:12 | 41.99569 | -87.44695 | 26608 ft | 468 kts | 123° |
| 2026-05-03 21:12 | 41.98150 | -87.40771 | 27027 ft | 469 kts | 107° |
| 2026-05-03 21:13 | 41.97595 | -87.36462 | 27380 ft | 468 kts | 90° |
| 2026-05-03 21:13 | 41.97525 | -87.32072 | 27773 ft | 470 kts | 88° |
| 2026-05-03 21:13 | 41.97507 | -87.27656 | 28102 ft | 474 kts | 88° |
| 2026-05-03 21:13 | 41.97496 | -87.23209 | 28437 ft | 477 kts | 88° |
| 2026-05-03 21:14 | 41.97471 | -87.18734 | 28795 ft | 479 kts | 88° |
| 2026-05-03 21:14 | 41.97428 | -87.14242 | 29161 ft | 482 kts | 89° |
| 2026-05-03 21:14 | 41.97368 | -87.09727 | 29502 ft | 484 kts | 89° |
| 2026-05-03 21:14 | 41.97298 | -87.05248 | 29814 ft | 487 kts | 89° |
| 2026-05-03 21:15 | 41.97221 | -87.00674 | 30092 ft | 489 kts | 89° |
| 2026-05-03 21:15 | 41.97140 | -86.96089 | 30351 ft | 492 kts | 89° |
| 2026-05-03 21:15 | 41.97057 | -86.91481 | 30700 ft | 492 kts | 89° |
| 2026-05-03 21:15 | 41.96972 | -86.86885 | 31078 ft | 491 kts | 89° |
| 2026-05-03 21:16 | 41.96887 | -86.82306 | 31451 ft | 490 kts | 89° |
| 2026-05-03 21:16 | 41.96801 | -86.77723 | 31795 ft | 490 kts | 89° |
| 2026-05-03 21:16 | 41.96715 | -86.73202 | 32110 ft | 491 kts | 89° |
| 2026-05-03 21:16 | 41.96625 | -86.68606 | 32440 ft | 491 kts | 89° |
| 2026-05-03 21:17 | 41.96534 | -86.64020 | 32799 ft | 490 kts | 89° |
| 2026-05-03 21:17 | 41.96473 | -86.60986 | 33016 ft | 490 kts | 89° |
| 2026-05-03 21:17 | 41.96346 | -86.54843 | 33434 ft | 491 kts | 89° |
| 2026-05-03 21:17 | 41.96250 | -86.50261 | 33757 ft | 491 kts | 89° |
| 2026-05-03 21:18 | 41.96151 | -86.45666 | 34047 ft | 491 kts | 89° |
| 2026-05-03 21:18 | 41.96052 | -86.41142 | 34271 ft | 492 kts | 89° |
| 2026-05-03 21:18 | 41.95949 | -86.36482 | 34485 ft | 493 kts | 89° |
| 2026-05-03 21:18 | 41.95846 | -86.31942 | 34738 ft | 493 kts | 89° |
| 2026-05-03 21:19 | 41.95741 | -86.27340 | 34939 ft | 494 kts | 89° |
| 2026-05-03 21:19 | 41.95606 | -86.22700 | 34939 ft | 499 kts | 92° |
| 2026-05-03 21:19 | 41.94236 | -86.13564 | 34959 ft | 499 kts | 104° |
| 2026-05-03 21:20 | 41.92388 | -86.04623 | 34942 ft | 493 kts | 104° |
| 2026-05-03 21:20 | 41.90580 | -85.95793 | 34929 ft | 493 kts | 104° |
| 2026-05-03 21:21 | 41.88801 | -85.86885 | 34946 ft | 494 kts | 104° |
| 2026-05-03 21:21 | 41.87029 | -85.77947 | 34944 ft | 496 kts | 104° |
| 2026-05-03 21:22 | 41.85244 | -85.68984 | 34944 ft | 498 kts | 104° |
| 2026-05-03 21:22 | 41.83443 | -85.59992 | 34954 ft | 500 kts | 104° |
| 2026-05-03 21:23 | 41.81627 | -85.50973 | 34954 ft | 501 kts | 104° |
| 2026-05-03 21:23 | 41.79810 | -85.41991 | 34952 ft | 502 kts | 104° |
| 2026-05-03 21:24 | 41.77974 | -85.32956 | 34954 ft | 502 kts | 104° |
| 2026-05-03 21:24 | 41.76133 | -85.23935 | 34958 ft | 502 kts | 104° |
| 2026-05-03 21:25 | 41.74285 | -85.14915 | 34963 ft | 501 kts | 104° |
| 2026-05-03 21:25 | 41.72432 | -85.05912 | 34962 ft | 501 kts | 105° |
| 2026-05-03 21:26 | 41.70586 | -84.96980 | 34965 ft | 501 kts | 105° |
| 2026-05-03 21:26 | 41.68722 | -84.87997 | 34962 ft | 500 kts | 105° |
| 2026-05-03 21:27 | 41.66893 | -84.79025 | 34960 ft | 499 kts | 101° |
| 2026-05-03 21:27 | 41.66193 | -84.69829 | 34961 ft | 496 kts | 91° |
| 2026-05-03 21:28 | 41.65889 | -84.60667 | 34959 ft | 496 kts | 91° |
| 2026-05-03 21:28 | 41.65545 | -84.51449 | 34957 ft | 497 kts | 91° |
| 2026-05-03 21:29 | 41.65146 | -84.42199 | 34959 ft | 497 kts | 92° |
| 2026-05-03 21:29 | 41.64728 | -84.33026 | 34944 ft | 497 kts | 92° |
| 2026-05-03 21:30 | 41.64300 | -84.23776 | 34932 ft | 498 kts | 92° |
| 2026-05-03 21:30 | 41.63868 | -84.14537 | 34939 ft | 499 kts | 92° |
| 2026-05-03 21:31 | 41.63427 | -84.05265 | 34939 ft | 499 kts | 92° |
| 2026-05-03 21:31 | 41.62978 | -83.95982 | 34946 ft | 500 kts | 92° |
| 2026-05-03 21:32 | 41.62525 | -83.86752 | 34950 ft | 501 kts | 92° |
| 2026-05-03 21:32 | 41.62061 | -83.77462 | 34943 ft | 501 kts | 92° |
| 2026-05-03 21:33 | 41.61590 | -83.68166 | 34943 ft | 501 kts | 92° |
| 2026-05-03 21:33 | 41.60898 | -83.58884 | 34939 ft | 503 kts | 102° |
| 2026-05-03 21:34 | 41.58957 | -83.49963 | 34938 ft | 502 kts | 108° |
| 2026-05-03 21:34 | 41.56865 | -83.41049 | 34970 ft | 503 kts | 107° |
| 2026-05-03 21:35 | 41.54816 | -83.32108 | 34970 ft | 503 kts | 107° |
| 2026-05-03 21:35 | 41.52794 | -83.23147 | 34963 ft | 504 kts | 107° |
| 2026-05-03 21:36 | 41.50767 | -83.14170 | 34964 ft | 505 kts | 107° |
| 2026-05-03 21:36 | 41.48727 | -83.05186 | 34956 ft | 506 kts | 107° |
| 2026-05-03 21:37 | 41.46673 | -82.96191 | 34972 ft | 507 kts | 107° |
| 2026-05-03 21:37 | 41.44610 | -82.87187 | 34974 ft | 508 kts | 107° |
| 2026-05-03 21:38 | 41.42551 | -82.78237 | 34973 ft | 508 kts | 107° |
| 2026-05-03 21:38 | 41.40468 | -82.69216 | 34975 ft | 509 kts | 107° |
| 2026-05-03 21:39 | 41.37797 | -82.60532 | 34985 ft | 506 kts | 123° |
| 2026-05-03 21:39 | 41.33523 | -82.53236 | 34999 ft | 500 kts | 137° |
| 2026-05-03 21:40 | 41.28654 | -82.46616 | 34977 ft | 500 kts | 138° |
| 2026-05-03 21:40 | 41.23778 | -82.39992 | 34996 ft | 501 kts | 138° |
| 2026-05-03 21:41 | 41.18916 | -82.33313 | 34994 ft | 503 kts | 137° |
| 2026-05-03 21:41 | 41.14060 | -82.26613 | 34995 ft | 504 kts | 137° |
| 2026-05-03 21:42 | 41.09184 | -82.19893 | 34997 ft | 505 kts | 137° |
| 2026-05-03 21:42 | 41.04335 | -82.13229 | 35008 ft | 505 kts | 137° |
| 2026-05-03 21:43 | 40.99439 | -82.06521 | 35005 ft | 506 kts | 137° |
| 2026-05-03 21:43 | 40.94529 | -81.99810 | 35011 ft | 508 kts | 137° |
| 2026-05-03 21:44 | 40.89600 | -81.93088 | 35001 ft | 509 kts | 138° |
| 2026-05-03 21:44 | 40.84668 | -81.86377 | 35003 ft | 509 kts | 138° |
| 2026-05-03 21:45 | 40.79730 | -81.79672 | 34994 ft | 509 kts | 138° |
| 2026-05-03 21:45 | 40.74828 | -81.73031 | 35035 ft | 509 kts | 138° |
| 2026-05-03 21:46 | 40.69872 | -81.66333 | 35039 ft | 509 kts | 138° |
| 2026-05-03 21:46 | 40.64913 | -81.59646 | 35039 ft | 509 kts | 138° |
| 2026-05-03 21:47 | 40.59954 | -81.52974 | 35012 ft | 509 kts | 138° |
| 2026-05-03 21:47 | 40.55033 | -81.46368 | 35013 ft | 508 kts | 138° |
| 2026-05-03 21:48 | 40.50073 | -81.39724 | 35021 ft | 508 kts | 139° |
| 2026-05-03 21:48 | 40.45117 | -81.33102 | 35018 ft | 508 kts | 139° |
| 2026-05-03 21:49 | 40.40146 | -81.26474 | 35032 ft | 508 kts | 138° |
| 2026-05-03 21:49 | 40.35210 | -81.19907 | 35036 ft | 508 kts | 138° |
| 2026-05-03 21:50 | 40.30241 | -81.13310 | 35046 ft | 508 kts | 138° |
| 2026-05-03 21:50 | 40.25264 | -81.06718 | 35054 ft | 508 kts | 139° |
| 2026-05-03 21:51 | 40.20291 | -81.00145 | 35045 ft | 508 kts | 139° |
| 2026-05-03 21:51 | 40.16151 | -80.94684 | 35042 ft | 508 kts | 139° |
| 2026-05-03 21:52 | 40.10356 | -80.87059 | 35008 ft | 508 kts | 139° |
| 2026-05-03 21:52 | 40.06215 | -80.81622 | 35049 ft | 507 kts | 139° |
| 2026-05-03 21:53 | 40.01243 | -80.75105 | 35064 ft | 506 kts | 139° |
| 2026-05-03 21:53 | 39.96262 | -80.68591 | 35063 ft | 506 kts | 139° |
| 2026-05-03 21:54 | 39.91285 | -80.62097 | 35065 ft | 506 kts | 139° |
| 2026-05-03 21:54 | 39.86297 | -80.55603 | 35022 ft | 506 kts | 140° |
| 2026-05-03 21:55 | 39.81355 | -80.49181 | 35057 ft | 504 kts | 140° |
| 2026-05-03 21:55 | 39.76384 | -80.42738 | 35070 ft | 504 kts | 140° |
| 2026-05-03 21:56 | 39.71417 | -80.36313 | 35063 ft | 504 kts | 140° |
| 2026-05-03 21:56 | 39.66446 | -80.29896 | 35063 ft | 503 kts | 140° |
| 2026-05-03 21:57 | 39.61475 | -80.23493 | 35027 ft | 503 kts | 141° |
| 2026-05-03 21:57 | 39.56538 | -80.17148 | 35064 ft | 502 kts | 141° |
| 2026-05-03 21:58 | 39.51569 | -80.10775 | 35064 ft | 503 kts | 141° |
| 2026-05-03 21:58 | 39.46583 | -80.04395 | 34994 ft | 506 kts | 141° |
| 2026-05-03 21:59 | 39.44061 | -80.01176 | 34445 ft | 511 kts | 141° |
| 2026-05-03 21:59 | 39.41535 | -79.97950 | 33823 ft | 511 kts | 141° |
| 2026-05-03 21:59 | 39.39005 | -79.94722 | 33122 ft | 511 kts | 140° |
| 2026-05-03 21:59 | 39.36477 | -79.91498 | 32380 ft | 511 kts | 141° |
| 2026-05-03 22:00 | 39.33942 | -79.88272 | 31827 ft | 509 kts | 141° |
| 2026-05-03 22:00 | 39.31496 | -79.84984 | 31391 ft | 509 kts | 131° |
| 2026-05-03 22:00 | 39.29721 | -79.81089 | 30940 ft | 512 kts | 114° |
| 2026-05-03 22:00 | 39.28755 | -79.76698 | 30541 ft | 508 kts | 96° |
| 2026-05-03 22:01 | 39.28396 | -79.72188 | 30141 ft | 502 kts | 93° |
| 2026-05-03 22:01 | 39.28135 | -79.67709 | 29633 ft | 498 kts | 92° |
| 2026-05-03 22:01 | 39.27859 | -79.63274 | 29198 ft | 493 kts | 94° |
| 2026-05-03 22:01 | 39.27532 | -79.58898 | 28752 ft | 488 kts | 94° |
| 2026-05-03 22:02 | 39.27179 | -79.54567 | 28346 ft | 482 kts | 94° |
| 2026-05-03 22:02 | 39.26824 | -79.50288 | 27968 ft | 477 kts | 95° |
| 2026-05-03 22:02 | 39.26472 | -79.46016 | 27567 ft | 478 kts | 95° |
| 2026-05-03 22:02 | 39.26122 | -79.41741 | 27169 ft | 480 kts | 94° |
| 2026-05-03 22:03 | 39.25776 | -79.37504 | 26765 ft | 481 kts | 94° |
| 2026-05-03 22:03 | 39.25424 | -79.33208 | 26334 ft | 479 kts | 94° |
| 2026-05-03 22:03 | 39.25073 | -79.28948 | 25935 ft | 476 kts | 94° |
| 2026-05-03 22:03 | 39.24721 | -79.24708 | 25524 ft | 473 kts | 94° |
| 2026-05-03 22:04 | 39.24368 | -79.20491 | 25126 ft | 470 kts | 94° |
| 2026-05-03 22:04 | 39.24012 | -79.16301 | 24730 ft | 467 kts | 94° |
| 2026-05-03 22:04 | 39.23658 | -79.12157 | 24347 ft | 464 kts | 94° |
| 2026-05-03 22:04 | 39.23304 | -79.08028 | 23946 ft | 460 kts | 94° |
| 2026-05-03 22:05 | 39.22958 | -79.03988 | 23573 ft | 458 kts | 94° |
| 2026-05-03 22:05 | 39.22607 | -78.99910 | 23120 ft | 456 kts | 94° |
| 2026-05-03 22:05 | 39.22257 | -78.95861 | 22683 ft | 451 kts | 94° |
| 2026-05-03 22:05 | 39.21887 | -78.91872 | 22324 ft | 446 kts | 95° |
| 2026-05-03 22:06 | 39.21503 | -78.87927 | 21938 ft | 442 kts | 95° |
| 2026-05-03 22:06 | 39.21116 | -78.84015 | 21561 ft | 438 kts | 95° |
| 2026-05-03 22:06 | 39.20735 | -78.80132 | 21190 ft | 435 kts | 95° |
| 2026-05-03 22:06 | 39.20359 | -78.76273 | 20806 ft | 431 kts | 95° |
| 2026-05-03 22:07 | 39.19986 | -78.72448 | 20460 ft | 428 kts | 95° |
| 2026-05-03 22:07 | 39.19615 | -78.68658 | 20104 ft | 424 kts | 96° |
| 2026-05-03 22:07 | 39.19250 | -78.64949 | 19743 ft | 422 kts | 96° |
| 2026-05-03 22:07 | 39.18876 | -78.61168 | 19390 ft | 418 kts | 96° |
| 2026-05-03 22:08 | 39.18512 | -78.57499 | 19053 ft | 416 kts | 96° |
| 2026-05-03 22:08 | 39.18145 | -78.53804 | 18696 ft | 415 kts | 96° |
| 2026-05-03 22:08 | 39.17779 | -78.50130 | 18342 ft | 412 kts | 96° |
| 2026-05-03 22:08 | 39.17416 | -78.46490 | 17947 ft | 408 kts | 96° |
| 2026-05-03 22:09 | 39.17053 | -78.42875 | 17572 ft | 403 kts | 96° |
| 2026-05-03 22:09 | 39.16695 | -78.39315 | 17211 ft | 398 kts | 96° |
| 2026-05-03 22:09 | 39.16302 | -78.35801 | 16862 ft | 393 kts | 101° |
| 2026-05-03 22:10 | 39.14724 | -78.29137 | 16208 ft | 385 kts | 109° |
| 2026-05-03 22:10 | 39.13839 | -78.25882 | 15900 ft | 385 kts | 109° |
| 2026-05-03 22:10 | 39.12976 | -78.22628 | 15583 ft | 383 kts | 108° |
| 2026-05-03 22:10 | 39.12145 | -78.19381 | 15270 ft | 381 kts | 108° |
| 2026-05-03 22:11 | 39.11342 | -78.16174 | 14961 ft | 381 kts | 108° |
| 2026-05-03 22:11 | 39.10533 | -78.12923 | 14649 ft | 380 kts | 108° |
| 2026-05-03 22:11 | 39.09724 | -78.09690 | 14340 ft | 379 kts | 108° |
| 2026-05-03 22:11 | 39.08905 | -78.06474 | 14021 ft | 377 kts | 108° |
| 2026-05-03 22:12 | 39.08085 | -78.03271 | 13708 ft | 375 kts | 108° |
| 2026-05-03 22:12 | 39.07269 | -78.00086 | 13365 ft | 374 kts | 108° |
| 2026-05-03 22:12 | 39.06457 | -77.96916 | 13031 ft | 372 kts | 108° |
| 2026-05-03 22:12 | 39.05649 | -77.93763 | 12744 ft | 369 kts | 108° |
| 2026-05-03 22:13 | 39.04858 | -77.90681 | 12443 ft | 364 kts | 108° |
| 2026-05-03 22:13 | 39.04069 | -77.87607 | 12123 ft | 359 kts | 108° |
| 2026-05-03 22:13 | 39.03290 | -77.84578 | 11840 ft | 353 kts | 108° |
| 2026-05-03 22:13 | 39.02524 | -77.81602 | 11550 ft | 348 kts | 108° |
| 2026-05-03 22:14 | 39.01768 | -77.78670 | 11276 ft | 343 kts | 108° |
| 2026-05-03 22:14 | 39.01018 | -77.75769 | 10997 ft | 339 kts | 107° |
| 2026-05-03 22:14 | 39.00282 | -77.72919 | 10717 ft | 333 kts | 107° |
| 2026-05-03 22:14 | 38.99565 | -77.70149 | 10435 ft | 321 kts | 107° |
| 2026-05-03 22:15 | 38.98871 | -77.67472 | 10171 ft | 310 kts | 107° |
| 2026-05-03 22:15 | 38.98184 | -77.64892 | 9915 ft | 301 kts | 110° |
| 2026-05-03 22:15 | 38.97367 | -77.62437 | 9678 ft | 296 kts | 114° |
| 2026-05-03 22:15 | 38.96504 | -77.60043 | 9429 ft | 295 kts | 114° |
| 2026-05-03 22:16 | 38.95650 | -77.57683 | 9204 ft | 295 kts | 114° |
| 2026-05-03 22:16 | 38.94786 | -77.55278 | 8965 ft | 295 kts | 114° |
| 2026-05-03 22:16 | 38.93934 | -77.52882 | 8730 ft | 295 kts | 114° |
| 2026-05-03 22:16 | 38.93088 | -77.50487 | 8502 ft | 294 kts | 114° |
| 2026-05-03 22:17 | 38.92245 | -77.48096 | 8264 ft | 293 kts | 114° |
| 2026-05-03 22:17 | 38.91404 | -77.45716 | 8031 ft | 293 kts | 114° |
| 2026-05-03 22:17 | 38.90499 | -77.43372 | 7729 ft | 294 kts | 118° |
| 2026-05-03 22:17 | 38.89493 | -77.41081 | 7420 ft | 293 kts | 120° |
| 2026-05-03 22:18 | 38.88492 | -77.38839 | 7113 ft | 293 kts | 120° |
| 2026-05-03 22:18 | 38.87490 | -77.36571 | 6810 ft | 293 kts | 120° |
| 2026-05-03 22:18 | 38.86489 | -77.34288 | 6493 ft | 292 kts | 119° |
| 2026-05-03 22:18 | 38.85493 | -77.32009 | 6172 ft | 293 kts | 119° |
| 2026-05-03 22:19 | 38.84498 | -77.29740 | 5927 ft | 290 kts | 120° |
| 2026-05-03 22:19 | 38.83503 | -77.27521 | 5708 ft | 284 kts | 120° |
| 2026-05-03 22:19 | 38.82522 | -77.25348 | 5523 ft | 279 kts | 120° |
| 2026-05-03 22:19 | 38.81560 | -77.23218 | 5354 ft | 273 kts | 120° |
| 2026-05-03 22:20 | 38.80617 | -77.21126 | 5199 ft | 269 kts | 120° |
| 2026-05-03 22:20 | 38.79685 | -77.19062 | 5018 ft | 265 kts | 120° |
| 2026-05-03 22:20 | 38.78770 | -77.17034 | 4866 ft | 260 kts | 120° |
| 2026-05-03 22:20 | 38.77875 | -77.15053 | 4685 ft | 257 kts | 120° |
| 2026-05-03 22:21 | 38.76978 | -77.13098 | 4568 ft | 248 kts | 124° |
| 2026-05-03 22:21 | 38.75735 | -77.11689 | 4368 ft | 235 kts | 160° |
| 2026-05-03 22:21 | 38.74208 | -77.11198 | 4268 ft | 226 kts | 177° |
| 2026-05-03 22:21 | 38.72643 | -77.11086 | 4156 ft | 224 kts | 182° |
| 2026-05-03 22:22 | 38.71103 | -77.11030 | 3990 ft | 216 kts | 182° |
| 2026-05-03 22:22 | 38.69631 | -77.10970 | 3837 ft | 205 kts | 182° |
| 2026-05-03 22:22 | 38.68234 | -77.10905 | 3705 ft | 198 kts | 183° |
| 2026-05-03 22:22 | 38.66869 | -77.10836 | 3626 ft | 195 kts | 183° |
| 2026-05-03 22:23 | 38.65515 | -77.10744 | 3527 ft | 196 kts | 179° |
| 2026-05-03 22:23 | 38.64149 | -77.10572 | 3421 ft | 198 kts | 178° |
| 2026-05-03 22:23 | 38.62779 | -77.10409 | 3302 ft | 197 kts | 178° |
| 2026-05-03 22:23 | 38.61425 | -77.10140 | 3178 ft | 198 kts | 160° |
| 2026-05-03 22:24 | 38.60403 | -77.09059 | 3178 ft | 198 kts | 119° |
| 2026-05-03 22:24 | 38.60105 | -77.07352 | 3180 ft | 201 kts | 80° |
| 2026-05-03 22:24 | 38.60640 | -77.05745 | 3145 ft | 195 kts | 50° |
| 2026-05-03 22:24 | 38.61425 | -77.04338 | 3053 ft | 194 kts | 49° |
| 2026-05-03 22:25 | 38.62346 | -77.03111 | 2968 ft | 188 kts | 29° |
| 2026-05-03 22:25 | 38.63492 | -77.02349 | 2883 ft | 184 kts | 13° |
| 2026-05-03 22:25 | 38.64706 | -77.01862 | 2798 ft | 182 kts | 9° |
| 2026-05-03 22:25 | 38.65935 | -77.01827 | 2689 ft | 175 kts | 348° |
| 2026-05-03 22:26 | 38.67168 | -77.01975 | 2598 ft | 180 kts | 351° |
| 2026-05-03 22:26 | 38.68417 | -77.02096 | 2438 ft | 181 kts | 351° |
| 2026-05-03 22:26 | 38.69608 | -77.02211 | 2430 ft | 165 kts | 349° |
| 2026-05-03 22:26 | 38.70720 | -77.02320 | 2299 ft | 158 kts | 351° |
| 2026-05-03 22:27 | 38.71793 | -77.02428 | 2164 ft | 152 kts | 350° |
| 2026-05-03 22:27 | 38.72853 | -77.02537 | 2087 ft | 159 kts | 351° |
| 2026-05-03 22:27 | 38.73964 | -77.02648 | 1956 ft | 159 kts | 350° |
| 2026-05-03 22:27 | 38.75051 | -77.02755 | 1781 ft | 157 kts | 349° |
| 2026-05-03 22:28 | 38.75770 | -77.02813 | 1628 ft | 158 kts | 350° |
| 2026-05-03 22:28 | 38.77234 | -77.02923 | 1426 ft | 155 kts | 351° |
| 2026-05-03 22:28 | 38.78263 | -77.03037 | 1256 ft | 139 kts | 349° |
| 2026-05-03 22:28 | 38.79232 | -77.03158 | 1068 ft | 140 kts | 348° |
| 2026-05-03 22:29 | 38.80179 | -77.03285 | 920 ft | 137 kts | 349° |
| 2026-05-03 22:29 | 38.81147 | -77.03362 | 681 ft | 141 kts | 351° |
| 2026-05-03 22:29 | 38.82133 | -77.03477 | 516 ft | 144 kts | 348° |
| 2026-05-03 22:29 | 38.83142 | -77.03567 | 284 ft | 144 kts | 351° |
| 2026-05-03 22:30 | 38.83804 | -77.03631 | 154 ft | 144 kts | 351° |
| 2026-05-03 22:30 | 38.85068 | -77.03785 | 28 ft | 123 kts | 350° |
| 2026-05-03 22:30 | 38.85634 | -77.03841 | 25 ft | 41 kts | 357° |
| 2026-05-03 22:30 | 38.85849 | -77.03859 | 28 ft | 17 kts | 354° |
| 2026-05-03 22:31 | 38.85913 | -77.03916 | 26 ft | 12 kts | 294° |
| 2026-05-03 22:31 | 38.85920 | -77.03972 | 24 ft | 2 kts | 243° |
| 2026-05-03 22:31 | 38.85906 | -77.03985 | 24 ft | 2 kts | 205° |
| 2026-05-03 22:31 | 38.85890 | -77.03988 | 25 ft | 3 kts | 184° |
| 2026-05-03 22:32 | 38.85859 | -77.03988 | 26 ft | 7 kts | 177° |
| 2026-05-03 22:32 | 38.85789 | -77.03983 | 26 ft | 13 kts | 177° |
| 2026-05-03 22:32 | 38.85721 | -77.03976 | 26 ft | 17 kts | 175° |
| 2026-05-03 22:32 | 38.85557 | -77.03958 | 24 ft | 18 kts | 176° |
| 2026-05-03 22:33 | 38.85438 | -77.03945 | 24 ft | 16 kts | 175° |
| 2026-05-03 22:33 | 38.85332 | -77.03935 | 25 ft | 15 kts | 175° |
| 2026-05-03 22:33 | 38.85227 | -77.03923 | 23 ft | 15 kts | 175° |
| 2026-05-03 22:33 | 38.85126 | -77.03914 | 23 ft | 14 kts | 175° |
| 2026-05-03 22:34 | 38.85029 | -77.03904 | 25 ft | 14 kts | 175° |
| 2026-05-03 22:34 | 38.84937 | -77.03895 | 23 ft | 13 kts | 176° |
| 2026-05-03 22:34 | 38.84871 | -77.03932 | 24 ft | 11 kts | 220° |
| 2026-05-03 22:34 | 38.84800 | -77.03948 | 25 ft | 10 kts | 182° |
| 2026-05-03 22:35 | 38.84733 | -77.03977 | 23 ft | 10 kts | 205° |
| 2026-05-03 22:35 | 38.84671 | -77.04015 | 23 ft | 10 kts | 206° |
| 2026-05-03 22:35 | 38.84614 | -77.04060 | 23 ft | 10 kts | 225° |
| 2026-05-03 22:35 | 38.84584 | -77.04134 | 23 ft | 9 kts | 252° |
| 2026-05-03 22:36 | 38.84572 | -77.04214 | 23 ft | 9 kts | 262° |
| 2026-05-03 22:36 | 38.84564 | -77.04293 | 23 ft | 9 kts | 272° |
| 2026-05-03 22:36 | 38.84593 | -77.04357 | 24 ft | 8 kts | 323° |
| 2026-05-03 22:36 | 38.84632 | -77.04361 | 26 ft | 5 kts | 31° |
| 2026-05-03 22:37 | 38.84643 | -77.04339 | 24 ft | 3 kts | 60° |
| 2026-05-03 22:37 | 38.84648 | -77.04327 | 23 ft | 0 kts | 60° |